Time;durP1;ratioP1;P1;durP2;ratioP2;P2;SDS_P1;SDS_P2;PMS_P1;PMS_P2;Temp;Humidity;BMP_temperature;BMP_pressure;BME280_temperature;BME280_humidity;BME280_pressure;Samples;Min_cycle;Max_cycle;Signal;HPM_P1;HPM_P2
2021/11/28 00:00:50;;;;;;;6.63;2.10;;;;;;;9.57;100.00;91866.69;5070506;28;20086;-84
2021/11/28 00:03:20;;;;;;;4.97;1.60;;;;;;;9.60;100.00;91866.22;5070452;28;20503;-83
2021/11/28 00:05:57;;;;;;;4.80;1.50;;;;;;;9.61;100.00;91861.84;5070566;28;20044;-83
2021/11/28 00:08:38;;;;;;;5.30;1.85;;;;;;;9.56;100.00;91857.44;5070300;28;20098;-84
2021/11/28 00:11:17;;;;;;;6.15;2.00;;;;;;;9.55;100.00;91863.59;5070360;28;20056;-84
2021/11/28 00:13:49;;;;;;;8.43;1.92;;;;;;;9.50;100.00;91855.81;5070341;28;20094;-84
2021/11/28 00:16:17;;;;;;;7.22;1.73;;;;;;;9.53;100.00;91850.22;5070440;28;20057;-84
2021/11/28 00:18:45;;;;;;;8.23;3.33;;;;;;;9.47;100.00;91849.38;5070436;28;20489;-84
2021/11/28 00:21:14;;;;;;;9.75;3.90;;;;;;;9.42;100.00;91849.31;5070224;28;20062;-84
2021/11/28 00:23:42;;;;;;;20.00;8.10;;;;;;;9.38;100.00;91847.44;5070196;28;20143;-84
2021/11/28 00:26:09;;;;;;;9.95;4.35;;;;;;;9.36;100.00;91847.69;5071575;28;20048;-84
2021/11/28 00:28:36;;;;;;;6.82;3.03;;;;;;;9.20;100.00;91824.41;5073860;28;20529;-84
2021/11/28 00:31:03;;;;;;;5.78;1.83;;;;;;;9.24;100.00;91832.41;5074018;28;20048;-84
2021/11/28 00:33:31;;;;;;;4.30;1.77;;;;;;;9.23;100.00;91835.97;5073853;28;20143;-84
2021/11/28 00:35:58;;;;;;;5.75;1.55;;;;;;;9.17;100.00;91830.00;5073594;28;20135;-84
2021/11/28 00:38:26;;;;;;;11.00;5.10;;;;;;;9.12;100.00;91829.91;5073914;28;20041;-83
2021/11/28 00:40:53;;;;;;;5.60;2.65;;;;;;;9.08;100.00;91841.66;5073654;28;20047;-84
2021/11/28 00:43:20;;;;;;;4.00;2.00;;;;;;;9.07;100.00;91830.63;5074074;28;20138;-84
2021/11/28 00:45:48;;;;;;;7.03;2.55;;;;;;;9.07;100.00;91825.50;5073717;28;20051;-84
2021/11/28 00:48:15;;;;;;;5.43;1.75;;;;;;;9.15;100.00;91849.97;5073566;28;20048;-83
2021/11/28 00:50:47;;;;;;;4.95;2.40;;;;;;;9.18;100.00;91841.03;5073421;28;20044;-84
2021/11/28 00:53:16;;;;;;;5.88;2.15;;;;;;;9.13;100.00;91820.47;5073619;28;20053;-84
2021/11/28 00:55:45;;;;;;;3.55;1.80;;;;;;;9.16;100.00;91838.69;5073555;28;20051;-83
2021/11/28 00:58:11;;;;;;;4.88;2.10;;;;;;;9.09;100.00;91843.22;5073418;28;20414;-83
2021/11/28 01:00:39;;;;;;;4.40;2.08;;;;;;;9.12;100.00;91849.66;5073444;28;20425;-84
2021/11/28 01:03:06;;;;;;;5.68;2.20;;;;;;;9.05;100.00;91839.56;5073202;28;20049;-83
2021/11/28 01:05:33;;;;;;;3.80;1.88;;;;;;;9.01;100.00;91844.38;5073194;28;20142;-84
2021/11/28 01:08:00;;;;;;;5.75;2.03;;;;;;;9.00;100.00;91830.03;5073353;28;20056;-85
2021/11/28 01:10:27;;;;;;;4.35;2.15;;;;;;;8.96;100.00;91826.38;5073285;28;20091;-83
2021/11/28 01:12:56;;;;;;;2.97;1.52;;;;;;;8.98;100.00;91831.28;5073236;28;20040;-84
2021/11/28 01:15:23;;;;;;;3.45;1.58;;;;;;;8.90;100.00;91827.31;5073119;28;20114;-84
2021/11/28 01:17:50;;;;;;;5.10;1.80;;;;;;;8.93;100.00;91830.19;5073384;28;20114;-83
2021/11/28 01:20:16;;;;;;;4.13;1.35;;;;;;;8.92;100.00;91827.84;5073222;28;20059;-84
2021/11/28 01:22:43;;;;;;;3.75;1.58;;;;;;;8.85;100.00;91827.22;5073100;28;20044;-83
2021/11/28 01:25:13;;;;;;;3.47;2.15;;;;;;;8.85;100.00;91832.34;5073054;28;20060;-83
2021/11/28 01:27:40;;;;;;;4.38;1.88;;;;;;;8.80;100.00;91821.00;5072863;28;20041;-84
2021/11/28 01:30:10;;;;;;;4.95;1.77;;;;;;;8.87;100.00;91838.78;5072709;28;20044;-84
2021/11/28 01:32:38;;;;;;;4.53;1.88;;;;;;;8.91;100.00;91831.41;5073062;28;20051;-84
2021/11/28 01:35:07;;;;;;;4.00;1.70;;;;;;;8.94;100.00;91841.22;5072654;28;20411;-84
2021/11/28 01:37:35;;;;;;;7.13;2.55;;;;;;;8.93;100.00;91837.06;5071785;28;20502;-84
2021/11/28 01:40:04;;;;;;;4.50;1.80;;;;;;;8.90;100.00;91842.66;5072557;28;20122;-84
2021/11/28 01:42:40;;;;;;;3.72;1.80;;;;;;;8.89;100.00;91852.13;5072503;28;20398;-84
2021/11/28 01:45:15;;;;;;;3.75;2.08;;;;;;;8.92;100.00;91851.69;5072857;28;20120;-84
2021/11/28 01:47:42;;;;;;;3.92;1.95;;;;;;;8.95;100.00;91851.19;5072621;28;20049;-85
2021/11/28 01:50:09;;;;;;;4.32;1.70;;;;;;;8.90;100.00;91829.88;5072332;28;20055;-84
2021/11/28 01:52:37;;;;;;;2.80;1.45;;;;;;;8.96;100.00;91844.31;5072488;28;20056;-84
2021/11/28 01:55:06;;;;;;;5.30;1.60;;;;;;;9.06;100.00;91849.56;5072404;28;20055;-84
2021/11/28 01:57:33;;;;;;;2.83;1.30;;;;;;;9.08;100.00;91857.03;5072457;28;20045;-84
2021/11/28 02:00:00;;;;;;;4.35;1.45;;;;;;;9.13;100.00;91851.19;5072053;28;20060;-84
2021/11/28 02:02:31;;;;;;;3.70;1.75;;;;;;;9.19;100.00;91847.69;5072305;28;20066;-83
2021/11/28 02:04:58;;;;;;;3.30;1.88;;;;;;;9.23;100.00;91853.91;5072288;28;20045;-84
2021/11/28 02:07:25;;;;;;;4.72;1.70;;;;;;;9.21;100.00;91843.09;5072106;28;20099;-84
2021/11/28 02:09:53;;;;;;;5.28;2.00;;;;;;;9.29;100.00;91844.50;5071937;28;20071;-84
2021/11/28 02:12:20;;;;;;;3.58;1.60;;;;;;;9.32;100.00;91836.34;5072223;28;20045;-84
2021/11/28 02:14:47;;;;;;;4.90;2.00;;;;;;;9.31;100.00;91832.25;5071971;28;20055;-84
2021/11/28 02:17:14;;;;;;;3.40;1.70;;;;;;;9.07;100.00;91796.53;5072020;28;20044;-84
2021/11/28 02:19:42;;;;;;;5.15;1.38;;;;;;;9.26;100.00;91830.38;5072026;28;20056;-84
2021/11/28 02:22:10;;;;;;;3.95;1.40;;;;;;;9.26;100.00;91835.50;5071707;28;20066;-84
2021/11/28 02:24:37;;;;;;;2.58;1.42;;;;;;;9.27;100.00;91828.59;5071906;28;20515;-84
2021/11/28 02:27:04;;;;;;;2.70;0.90;;;;;;;9.27;100.00;91820.91;5071891;28;20404;-84
2021/11/28 02:29:31;;;;;;;3.30;1.13;;;;;;;9.23;100.00;91807.78;5071707;28;20045;-83
2021/11/28 02:31:58;;;;;;;3.15;1.48;;;;;;;9.20;100.00;91808.25;5071711;28;20510;-84
2021/11/28 02:34:25;;;;;;;3.63;1.50;;;;;;;9.18;100.00;91808.50;5071483;28;20487;-84
2021/11/28 02:36:53;;;;;;;4.25;1.33;;;;;;;9.13;100.00;91805.88;5071399;28;20044;-84
2021/11/28 02:39:22;;;;;;;2.88;1.30;;;;;;;9.13;100.00;91818.69;5069619;28;20052;-84
2021/11/28 02:41:49;;;;;;;3.20;1.50;;;;;;;9.17;100.00;91816.44;5071752;28;20052;-84
2021/11/28 02:44:17;;;;;;;2.33;1.05;;;;;;;9.15;100.00;91815.88;5071438;28;20522;-84
2021/11/28 02:46:45;;;;;;;4.28;1.35;;;;;;;9.15;100.00;91805.63;5071261;28;20499;-84
2021/11/28 02:49:15;;;;;;;2.42;1.30;;;;;;;9.13;100.00;91792.28;5071590;28;20048;-84
2021/11/28 02:51:43;;;;;;;3.05;1.10;;;;;;;8.68;100.00;91716.16;5071395;28;20075;-84
2021/11/28 02:54:10;;;;;;;3.13;1.55;;;;;;;9.13;100.00;91771.78;5071228;28;20588;-84
2021/11/28 02:56:43;;;;;;;2.72;1.05;;;;;;;9.20;100.00;91783.41;5071371;28;20052;-84
2021/11/28 02:59:10;;;;;;;2.30;1.25;;;;;;;9.15;100.00;91785.91;5071179;28;20430;-84
2021/11/28 03:01:37;;;;;;;1.88;0.80;;;;;;;9.06;100.00;91769.38;5071015;28;20475;-84
2021/11/28 03:04:04;;;;;;;4.45;1.42;;;;;;;9.11;100.00;91778.94;5070988;28;20056;-84
2021/11/28 03:06:31;;;;;;;5.68;1.42;;;;;;;9.08;100.00;91791.19;5071035;28;20402;-84
2021/11/28 03:08:58;;;;;;;4.07;1.40;;;;;;;8.99;100.00;91767.00;5070913;28;20459;-84
2021/11/28 03:11:25;;;;;;;3.33;1.27;;;;;;;8.99;100.00;91772.13;5071048;28;20053;-84
2021/11/28 03:13:54;;;;;;;3.50;1.33;;;;;;;8.97;100.00;91766.44;5070974;28;20053;-84
2021/11/28 03:16:22;;;;;;;2.63;1.02;;;;;;;8.91;100.00;91762.28;5070904;28;20418;-84
2021/11/28 03:18:50;;;;;;;4.18;1.35;;;;;;;8.85;100.00;91758.09;5070848;28;20044;-83
2021/11/28 03:21:19;;;;;;;3.45;1.20;;;;;;;8.73;100.00;91738.47;5070972;28;20083;-84
2021/11/28 03:23:48;;;;;;;2.50;1.20;;;;;;;8.70;100.00;91731.25;5070973;28;20130;-84
2021/11/28 03:26:18;;;;;;;5.10;1.30;;;;;;;8.58;100.00;91712.66;5070822;28;20166;-84
2021/11/28 03:28:49;;;;;;;4.53;1.30;;;;;;;8.79;100.00;91757.22;5070726;28;20053;-84
2021/11/28 03:31:18;;;;;;;4.53;1.00;;;;;;;8.85;100.00;91783.69;5071258;28;20091;-84
2021/11/28 03:33:45;;;;;;;2.78;1.30;;;;;;;8.82;100.00;91777.25;5070924;28;20117;-84
2021/11/28 03:36:14;;;;;;;5.53;1.50;;;;;;;8.93;100.00;91785.84;5070879;28;20048;-84
2021/11/28 03:38:43;;;;;;;4.25;2.10;;;;;;;8.92;100.00;91784.31;5070897;28;20045;-84
2021/11/28 03:41:11;;;;;;;5.68;2.20;;;;;;;9.01;100.00;91803.41;5070669;28;20045;-84
2021/11/28 03:43:39;;;;;;;4.95;2.75;;;;;;;9.04;100.00;91794.47;5070677;28;20044;-84
2021/11/28 03:46:07;;;;;;;5.13;2.50;;;;;;;9.01;100.00;91793.16;5070712;28;20048;-84
2021/11/28 03:48:36;;;;;;;5.63;2.28;;;;;;;9.14;100.00;91820.22;5070672;28;20056;-84
2021/11/28 03:51:03;;;;;;;3.33;1.77;;;;;;;9.21;100.00;91831.09;5070744;28;20071;-84
2021/11/28 03:53:29;;;;;;;6.50;2.28;;;;;;;9.22;100.00;91844.69;5070706;28;20047;-84
2021/11/28 03:56:00;;;;;;;8.45;2.53;;;;;;;9.08;100.00;91816.06;5070543;28;20056;-84
2021/11/28 03:58:28;;;;;;;5.18;2.15;;;;;;;9.25;100.00;91849.31;5070542;28;20502;-84
2021/11/28 04:00:55;;;;;;;4.20;2.05;;;;;;;9.25;100.00;91866.50;5071363;28;20059;-84
2021/11/28 04:03:22;;;;;;;4.45;2.25;;;;;;;9.19;100.00;91871.53;5074576;28;20040;-84
2021/11/28 04:05:51;;;;;;;5.57;1.95;;;;;;;9.28;100.00;91889.88;5074528;28;20052;-84
2021/11/28 04:08:18;;;;;;;5.22;2.33;;;;;;;9.31;100.00;91904.00;5074290;28;20044;-85
2021/11/28 04:10:44;;;;;;;6.43;2.80;;;;;;;9.27;100.00;91913.16;5074469;28;20105;-84
2021/11/28 04:13:11;;;;;;;4.63;2.72;;;;;;;9.28;100.00;91914.69;5074378;28;20044;-84
2021/11/28 04:15:40;;;;;;;6.07;2.95;;;;;;;9.30;100.00;91908.34;5074532;28;20052;-84
2021/11/28 04:18:07;;;;;;;6.30;2.75;;;;;;;9.25;100.00;91898.00;5074141;28;20095;-84
2021/11/28 04:20:34;;;;;;;6.05;2.97;;;;;;;9.28;100.00;91895.00;5074159;28;20050;-83
2021/11/28 04:23:03;;;;;;;4.47;2.40;;;;;;;9.30;100.00;91903.22;5074016;28;20052;-84
2021/11/28 04:25:30;;;;;;;5.18;2.20;;;;;;;9.21;100.00;91910.50;5074083;28;20048;-84
2021/11/28 04:27:57;;;;;;;8.50;3.30;;;;;;;9.20;100.00;91910.72;5074205;28;20049;-84
2021/11/28 04:30:26;;;;;;;5.30;2.42;;;;;;;9.16;100.00;91917.34;5074009;28;20044;-84
2021/11/28 04:32:53;;;;;;;4.30;2.22;;;;;;;9.10;100.00;91908.81;5073895;28;20499;-84
2021/11/28 04:35:21;;;;;;;6.18;2.10;;;;;;;9.10;100.00;91913.94;5073968;28;20056;-85
2021/11/28 04:37:48;;;;;;;7.32;3.40;;;;;;;8.95;100.00;91897.28;5073807;28;20536;-84
2021/11/28 04:40:16;;;;;;;9.23;4.05;;;;;;;8.98;100.00;91905.53;5073770;28;20052;-83
2021/11/28 04:42:44;;;;;;;9.40;4.78;;;;;;;8.99;100.00;91912.22;5073869;28;20392;-84
2021/11/28 04:45:12;;;;;;;6.68;3.25;;;;;;;9.00;100.00;91891.50;5073914;28;20037;-84
2021/11/28 04:47:40;;;;;;;3.63;1.75;;;;;;;8.88;100.00;91867.75;5073779;28;20048;-83
2021/11/28 04:50:09;;;;;;;3.50;1.90;;;;;;;8.89;100.00;91882.09;5073514;28;20399;-84
2021/11/28 04:52:36;;;;;;;3.92;1.80;;;;;;;8.69;100.00;91873.84;5073560;28;20044;-84
2021/11/28 04:55:07;;;;;;;3.17;1.27;;;;;;;8.72;100.00;91887.97;5073571;28;20057;-84
2021/11/28 04:57:36;;;;;;;2.58;1.25;;;;;;;8.66;100.00;91884.53;5073813;28;20045;-84
2021/11/28 05:00:08;;;;;;;4.35;1.48;;;;;;;8.52;100.00;91868.69;5073451;28;20064;-84
2021/11/28 05:02:34;;;;;;;3.20;1.08;;;;;;;8.55;100.00;91891.28;5073340;28;20044;-84
2021/11/28 05:05:01;;;;;;;3.70;1.23;;;;;;;8.53;100.00;91892.50;5073326;28;20052;-84
2021/11/28 05:07:28;;;;;;;4.40;1.40;;;;;;;8.48;100.00;91895.72;5068403;28;20044;-84
2021/11/28 05:09:55;;;;;;;3.60;1.10;;;;;;;8.51;100.00;91904.72;5072157;28;20059;-84
2021/11/28 05:12:22;;;;;;;3.50;1.08;;;;;;;8.44;100.00;91912.56;5070984;28;20143;-84
2021/11/28 05:14:51;;;;;;;4.22;1.60;;;;;;;8.51;100.00;91925.97;5072829;28;20103;-84
2021/11/28 05:17:19;;;;;;;2.85;1.00;;;;;;;8.45;100.00;91936.34;5071995;28;20045;-84
2021/11/28 05:19:46;;;;;;;6.35;1.70;;;;;;;8.52;100.00;91932.66;5072908;28;20110;-85
2021/11/28 05:22:13;;;;;;;3.10;1.23;;;;;;;8.54;100.00;91927.34;5064086;28;20070;-84
2021/11/28 05:24:40;;;;;;;10.95;3.58;;;;;;;8.57;100.00;91933.78;5062790;28;20049;-85
2021/11/28 05:27:08;;;;;;;7.55;2.30;;;;;;;8.52;100.00;91931.91;5060387;28;20411;-85
2021/11/28 05:29:35;;;;;;;6.40;2.60;;;;;;;8.41;100.00;91928.34;5066516;28;20055;-85
2021/11/28 05:32:04;;;;;;;10.68;3.72;;;;;;;8.47;100.00;91947.16;5064333;28;20510;-85
2021/11/28 05:34:31;;;;;;;7.60;4.28;;;;;;;8.50;100.00;91941.56;5057636;28;20067;-85
2021/11/28 05:36:59;;;;;;;10.07;3.30;;;;;;;8.52;100.00;91934.47;5063932;28;20079;-85
2021/11/28 05:39:26;;;;;;;10.18;4.13;;;;;;;8.50;100.00;91914.19;5062809;28;20056;-86
2021/11/28 05:41:53;;;;;;;9.27;3.97;;;;;;;8.48;100.00;91903.38;5061772;28;20483;-84
2021/11/28 05:44:20;;;;;;;6.90;3.22;;;;;;;8.48;100.00;91900.06;5060142;28;20053;-85
2021/11/28 05:46:47;;;;;;;10.13;4.18;;;;;;;8.46;100.00;91890.06;5057692;28;20454;-85
2021/11/28 05:49:15;;;;;;;14.23;6.35;;;;;;;8.45;100.00;91896.19;5056879;28;20059;-85
2021/11/28 05:51:42;;;;;;;11.88;6.03;;;;;;;8.34;100.00;91881.66;5057085;28;20063;-85
2021/11/28 05:54:09;;;;;;;12.52;6.95;;;;;;;8.32;100.00;91902.34;5064271;28;20048;-86
2021/11/28 05:56:36;;;;;;;10.77;5.82;;;;;;;8.28;100.00;91912.25;5058390;28;20049;-85
2021/11/28 05:59:03;;;;;;;8.25;4.30;;;;;;;8.25;100.00;91910.16;5059799;28;20503;-85
2021/11/28 06:01:30;;;;;;;8.75;4.28;;;;;;;8.26;100.00;91918.59;5057173;28;20045;-86
2021/11/28 06:03:57;;;;;;;15.65;6.90;;;;;;;8.18;100.00;91913.84;5063339;28;20811;-85
2021/11/28 06:06:25;;;;;;;11.35;5.70;;;;;;;8.23;100.00;91932.63;5058425;28;20514;-85
2021/11/28 06:08:55;;;;;;;12.63;6.20;;;;;;;8.24;100.00;91941.84;5058515;28;20049;-83
2021/11/28 06:11:22;;;;;;;7.38;4.47;;;;;;;8.24;100.00;91941.84;5066549;28;20055;-85
2021/11/28 06:13:49;;;;;;;18.20;8.52;;;;;;;8.26;100.00;91942.41;5066627;28;20037;-84
2021/11/28 06:16:16;;;;;;;7.55;4.03;;;;;;;8.25;100.00;91947.75;5062139;28;20049;-84
2021/11/28 06:18:43;;;;;;;6.65;2.70;;;;;;;8.22;100.00;91941.31;5062762;28;20075;-86
2021/11/28 06:21:10;;;;;;;4.38;2.40;;;;;;;8.29;100.00;91946.31;5059149;28;20052;-85
2021/11/28 06:23:38;;;;;;;7.15;3.15;;;;;;;8.33;100.00;91965.28;5065159;28;20491;-85
2021/11/28 06:26:05;;;;;;;7.03;3.33;;;;;;;8.37;100.00;91970.75;5059444;28;20044;-85
2021/11/28 06:28:33;;;;;;;7.43;3.63;;;;;;;8.36;100.00;91957.19;5065276;28;20599;-85
2021/11/28 06:31:01;;;;;;;6.53;3.30;;;;;;;8.43;100.00;91960.38;5061733;28;20057;-85
2021/11/28 06:33:28;;;;;;;6.43;3.83;;;;;;;8.47;100.00;91968.38;5066260;28;20528;-86
2021/11/28 06:35:56;;;;;;;9.07;5.28;;;;;;;8.57;100.00;91972.16;5060008;28;20049;-85
2021/11/28 06:38:23;;;;;;;12.02;6.93;;;;;;;8.60;100.00;91992.97;5060309;28;20135;-85
2021/11/28 06:40:51;;;;;;;12.68;6.68;;;;;;;8.67;100.00;91995.41;5056007;28;20517;-86
2021/11/28 06:43:18;;;;;;;8.43;4.90;;;;;;;8.71;100.00;91993.16;5056088;28;20053;-85
2021/11/28 06:45:45;;;;;;;10.95;5.18;;;;;;;8.66;100.00;91983.63;5065850;28;20055;-85
2021/11/28 06:48:15;;;;;;;11.15;5.78;;;;;;;8.84;100.00;91979.31;5058801;28;20094;-85
2021/11/28 06:50:42;;;;;;;12.55;5.28;;;;;;;8.85;100.00;91973.19;5054524;28;20052;-85
2021/11/28 06:53:09;;;;;;;16.35;10.23;;;;;;;8.88;100.00;91980.41;5040172;28;20695;-84
2021/11/28 06:55:36;;;;;;;7.00;2.95;;;;;;;8.88;100.00;91973.50;5056743;28;20054;-84
2021/11/28 06:58:04;;;;;;;9.40;5.32;;;;;;;8.94;100.00;91987.19;5057824;28;20059;-84
2021/11/28 07:00:31;;;;;;;4.80;2.45;;;;;;;8.98;100.00;91985.69;5065471;28;20048;-84
2021/11/28 07:02:58;;;;;;;4.82;2.65;;;;;;;9.07;100.00;91989.44;5059194;28;20056;-83
2021/11/28 07:05:25;;;;;;;7.53;4.07;;;;;;;9.09;100.00;91981.53;5064080;28;20037;-84
2021/11/28 07:07:52;;;;;;;6.78;3.75;;;;;;;9.27;100.00;91995.94;5061644;28;20058;-83
2021/11/28 07:10:18;;;;;;;3.70;1.90;;;;;;;9.32;100.00;91992.66;5057723;28;20082;-84
2021/11/28 07:12:45;;;;;;;3.28;1.65;;;;;;;9.52;100.00;92009.38;5065410;28;20049;-84
2021/11/28 07:15:15;;;;;;;7.60;2.97;;;;;;;9.57;100.00;92012.81;5057473;28;20053;-84
2021/11/28 07:17:41;;;;;;;4.20;2.08;;;;;;;9.65;100.00;91998.03;5064926;28;20098;-84
2021/11/28 07:20:09;;;;;;;4.45;1.88;;;;;;;9.66;100.00;92009.84;5065324;28;20436;-85
2021/11/28 07:22:36;;;;;;;5.32;1.70;;;;;;;9.68;100.00;91984.75;5065708;28;20044;-84
2021/11/28 07:25:04;;;;;;;4.32;1.90;;;;;;;9.71;100.00;91997.09;5058656;28;20049;-83
2021/11/28 07:27:31;;;;;;;4.43;1.55;;;;;;;9.75;100.00;92000.75;5064272;28;20063;-84
2021/11/28 07:30:01;;;;;;;5.18;1.52;;;;;;;9.74;100.00;91988.94;5058724;28;20530;-84
2021/11/28 07:32:29;;;;;;;5.05;2.67;;;;;;;9.72;100.00;91962.78;5063684;28;20079;-84
2021/11/28 07:34:56;;;;;;;8.98;3.83;;;;;;;9.86;100.00;91948.59;5058788;28;20144;-84
2021/11/28 07:37:23;;;;;;;27.25;9.13;;;;;;;9.87;100.00;91949.38;5055010;28;20073;-83
2021/11/28 07:39:54;;;;;;;40.70;15.75;;;;;;;9.91;100.00;91957.38;5055395;28;20051;-86
2021/11/28 07:42:21;;;;;;;38.25;15.70;;;;;;;10.03;100.00;91955.47;5063455;28;20090;-85
2021/11/28 07:44:49;;;;;;;21.80;9.55;;;;;;;10.11;100.00;91967.13;5065312;28;20101;-85
2021/11/28 07:47:16;;;;;;;38.38;17.08;;;;;;;10.16;100.00;91980.81;5060728;28;20151;-85
2021/11/28 07:49:44;;;;;;;33.35;14.40;;;;;;;10.24;100.00;91969.34;5060145;28;20045;-85
2021/11/28 07:52:11;;;;;;;27.88;11.63;;;;;;;10.32;100.00;91977.66;5055567;28;20114;-85
2021/11/28 07:54:38;;;;;;;21.40;9.98;;;;;;;10.45;100.00;91976.56;5055244;28;20049;-85
2021/11/28 07:57:05;;;;;;;22.23;9.73;;;;;;;10.50;100.00;91959.41;5062000;28;20118;-84
2021/11/28 07:59:33;;;;;;;32.75;13.68;;;;;;;10.56;100.00;91955.88;5056177;28;20064;-84
2021/11/28 08:02:00;;;;;;;29.45;13.52;;;;;;;10.66;100.00;91973.19;5055392;28;20152;-85
2021/11/28 08:04:27;;;;;;;25.05;11.95;;;;;;;10.77;100.00;91984.34;5063388;28;20041;-84
2021/11/28 08:06:56;;;;;;;29.08;11.32;;;;;;;10.70;100.00;91947.81;5060340;28;20402;-85
2021/11/28 08:09:23;;;;;;;14.15;7.35;;;;;;;10.96;99.17;91981.44;5056891;28;20041;-85
2021/11/28 08:11:50;;;;;;;16.00;9.52;;;;;;;11.03;97.67;91965.84;5061546;28;20059;-85
2021/11/28 08:14:17;;;;;;;10.43;5.10;;;;;;;11.03;95.96;91973.56;5056734;28;20481;-85
2021/11/28 08:16:43;;;;;;;8.70;4.35;;;;;;;11.04;96.64;91959.69;5064931;28;20051;-85
2021/11/28 08:19:10;;;;;;;7.75;3.30;;;;;;;11.08;95.68;91984.63;5057570;28;20040;-85
2021/11/28 08:21:38;;;;;;;9.55;2.88;;;;;;;11.02;96.56;91982.28;5064276;28;20052;-85
2021/11/28 08:24:06;;;;;;;6.10;2.45;;;;;;;11.19;95.77;91995.81;5065004;28;20426;-84
2021/11/28 08:26:35;;;;;;;7.43;2.85;;;;;;;11.19;95.14;92010.44;5064882;28;20048;-84
2021/11/28 08:29:03;;;;;;;5.50;2.50;;;;;;;11.28;94.56;92011.56;5058037;28;20084;-84
2021/11/28 08:31:30;;;;;;;12.15;3.45;;;;;;;11.33;94.61;92013.41;5059041;28;20052;-84
2021/11/28 08:33:57;;;;;;;6.38;2.78;;;;;;;11.37;93.73;92011.91;5064878;28;20036;-84
2021/11/28 08:36:24;;;;;;;7.03;3.25;;;;;;;11.50;93.78;92011.47;5057023;28;20053;-86
2021/11/28 08:38:52;;;;;;;9.07;3.80;;;;;;;11.59;92.39;92011.06;5060882;28;20045;-84
2021/11/28 08:41:27;;;;;;;6.45;3.13;;;;;;;11.52;91.52;92006.09;5059442;28;20052;-85
2021/11/28 08:43:55;;;;;;;7.18;2.25;;;;;;;11.57;91.17;92024.16;5058016;28;20052;-84
2021/11/28 08:46:23;;;;;;;5.40;1.92;;;;;;;11.59;91.35;92016.97;5062945;28;20049;-85
2021/11/28 08:48:53;;;;;;;11.18;5.85;;;;;;;11.71;90.88;92021.94;5068535;28;20063;-85
2021/11/28 08:51:20;;;;;;;8.93;4.57;;;;;;;11.73;90.27;92011.41;5068450;28;20056;-85
2021/11/28 08:53:47;;;;;;;11.23;3.95;;;;;;;11.77;89.32;92002.94;5058137;28;20052;-85
2021/11/28 08:56:14;;;;;;;7.45;3.30;;;;;;;11.79;89.29;92005.28;5066023;28;20052;-85
2021/11/28 08:58:43;;;;;;;7.15;2.10;;;;;;;11.71;88.36;91998.03;5058519;28;20049;-85
2021/11/28 09:01:10;;;;;;;6.78;2.70;;;;;;;11.80;88.32;92011.22;5058129;28;20866;-85
2021/11/28 09:03:36;;;;;;;7.65;3.17;;;;;;;11.80;88.08;92006.81;5067278;28;20044;-85
2021/11/28 09:06:03;;;;;;;7.30;3.50;;;;;;;11.70;88.00;91993.88;5061211;28;20055;-85
2021/11/28 09:08:30;;;;;;;5.72;2.42;;;;;;;11.81;87.19;92023.06;5062427;28;20053;-84
2021/11/28 09:11:00;;;;;;;5.70;2.65;;;;;;;11.87;87.08;92010.00;5062187;28;20053;-85
2021/11/28 09:13:27;;;;;;;8.18;2.97;;;;;;;11.99;87.36;92016.75;5062065;28;20503;-85
2021/11/28 09:15:55;;;;;;;6.10;2.72;;;;;;;12.06;85.93;92021.69;5058870;28;20049;-85
2021/11/28 09:18:26;;;;;;;10.10;5.13;;;;;;;12.10;84.91;92017.59;5062334;28;20052;-84
2021/11/28 09:20:58;;;;;;;8.43;3.50;;;;;;;12.02;84.01;92008.53;5062154;28;20082;-84
2021/11/28 09:26:29;;;;;;;11.88;6.13;;;;;;;11.31;84.20;91876.63;5064435;28;20098;-84
2021/11/28 09:28:58;;;;;;;23.30;11.48;;;;;;;12.21;83.78;91983.19;5063702;28;20049;-85
2021/11/28 09:31:27;;;;;;;14.38;6.03;;;;;;;12.36;84.47;91984.28;5067192;28;20048;-84
2021/11/28 09:33:54;;;;;;;11.50;5.55;;;;;;;12.40;83.25;91988.69;5061173;28;20045;-84
2021/11/28 09:36:21;;;;;;;10.27;3.22;;;;;;;12.46;81.88;91981.75;5065729;28;20053;-83
2021/11/28 09:38:48;;;;;;;27.63;11.43;;;;;;;12.49;80.93;91985.63;5067607;28;20483;-84
2021/11/28 09:41:15;;;;;;;19.70;7.63;;;;;;;12.53;81.37;91976.34;5067617;28;20077;-84
2021/11/28 09:43:49;;;;;;;19.85;8.63;;;;;;;12.60;82.03;91976.13;5057494;28;20562;-85
2021/11/28 09:46:21;;;;;;;20.27;8.43;;;;;;;12.62;81.98;91968.91;5057373;28;20052;-83
2021/11/28 09:48:57;;;;;;;29.67;10.98;;;;;;;12.77;81.55;91978.53;5057204;28;20147;-84
2021/11/28 09:51:27;;;;;;;12.95;5.47;;;;;;;12.73;80.44;91985.19;5060177;28;20156;-84
2021/11/28 09:53:56;;;;;;;15.73;5.95;;;;;;;12.70;80.34;91982.09;5066335;28;20146;-83
2021/11/28 09:56:24;;;;;;;10.82;4.35;;;;;;;12.68;80.58;91979.00;5066723;28;20079;-84
2021/11/28 09:58:51;;;;;;;5.70;2.13;;;;;;;12.32;78.48;91937.66;5060309;28;20396;-84
2021/11/28 10:01:18;;;;;;;13.85;5.20;;;;;;;12.56;79.90;91981.78;5065246;28;20068;-83
2021/11/28 10:03:45;;;;;;;5.40;1.92;;;;;;;12.48;79.47;91976.34;5057020;28;20063;-83
2021/11/28 10:06:14;;;;;;;8.20;3.55;;;;;;;12.41;79.59;91953.41;5057051;28;20068;-84
2021/11/28 10:08:42;;;;;;;6.35;2.60;;;;;;;12.41;80.57;91943.09;5066283;28;20044;-86
2021/11/28 10:12:07;;;;;;;3.47;1.15;;;;;;;12.36;79.50;91930.97;5062752;28;20082;-82
2021/11/28 10:14:34;;;;;;;8.30;2.65;;;;;;;12.36;80.70;91927.63;5054907;28;20049;-83
2021/11/28 10:17:01;;;;;;;5.50;2.10;;;;;;;12.35;80.33;91942.31;5060052;28;20053;-85
2021/11/28 10:19:32;;;;;;;13.05;4.18;;;;;;;12.38;80.34;91939.22;5065385;28;20048;-84
2021/11/28 10:22:00;;;;;;;4.90;2.00;;;;;;;12.32;79.60;91935.09;5060135;28;20104;-85
2021/11/28 10:24:27;;;;;;;4.22;1.35;;;;;;;12.38;78.62;91930.72;5057022;28;20053;-85
2021/11/28 10:26:56;;;;;;;3.75;2.08;;;;;;;12.45;80.16;91923.53;5062809;28;20070;-85
2021/11/28 10:29:24;;;;;;;7.07;3.08;;;;;;;12.33;79.23;91900.59;5058332;28;20499;-84
2021/11/28 10:31:53;;;;;;;3.95;1.65;;;;;;;12.37;77.49;91906.75;5062179;28;20495;-84
2021/11/28 10:34:24;;;;;;;7.68;3.53;;;;;;;12.35;78.88;91906.25;5058870;28;20052;-84
2021/11/28 10:36:53;;;;;;;5.32;1.55;;;;;;;12.32;77.95;91898.25;5059091;28;20592;-83
2021/11/28 10:39:24;;;;;;;6.43;2.33;;;;;;;12.35;77.86;91897.78;5058977;28;20044;-85
2021/11/28 10:41:55;;;;;;;5.60;2.30;;;;;;;12.27;77.99;91883.59;5056343;28;20082;-87
2021/11/28 10:44:24;;;;;;;17.17;8.23;;;;;;;12.05;77.05;91856.22;5064989;28;20048;-85
2021/11/28 10:46:52;;;;;;;6.60;3.47;;;;;;;12.26;78.01;91895.66;5064932;28;20560;-83
2021/11/28 10:49:22;;;;;;;7.57;1.98;;;;;;;12.16;78.39;91903.34;5064552;28;20056;-85
2021/11/28 10:51:50;;;;;;;13.07;6.65;;;;;;;12.30;78.46;91911.38;5066278;28;20056;-84
2021/11/28 10:54:27;;;;;;;7.82;4.68;;;;;;;12.37;77.84;91931.75;5066165;28;20053;-84
2021/11/28 10:57:18;;;;;;;4.18;2.30;;;;;;;12.34;77.51;91940.75;5059759;28;20067;-83
2021/11/28 10:59:55;;;;;;;9.43;3.42;;;;;;;12.34;78.20;91935.59;5065367;28;20052;-85
2021/11/28 11:02:24;;;;;;;10.25;4.50;;;;;;;12.39;77.95;91933.06;5065987;28;20044;-84
2021/11/28 11:04:58;;;;;;;5.18;2.13;;;;;;;12.06;77.73;91900.72;5067881;28;20071;-87
2021/11/28 11:07:26;;;;;;;4.78;2.08;;;;;;;12.48;78.02;91943.66;5062425;28;20102;-84
2021/11/28 11:09:56;;;;;;;7.03;2.38;;;;;;;12.37;78.16;91927.38;5061623;28;20055;-83
2021/11/28 11:12:28;;;;;;;7.95;3.85;;;;;;;12.56;78.47;91939.81;5065283;28;20052;-84
2021/11/28 11:14:57;;;;;;;10.75;3.20;;;;;;;12.59;77.78;91943.69;5059324;28;20139;-83
2021/11/28 11:17:28;;;;;;;5.40;2.05;;;;;;;12.64;76.86;91926.41;5064224;28;20090;-82
2021/11/28 11:19:55;;;;;;;4.05;2.33;;;;;;;12.70;77.85;91934.94;5059235;28;20043;-82
2021/11/28 11:22:25;;;;;;;7.68;2.67;;;;;;;12.79;77.39;91930.88;5063907;28;20453;-84
2021/11/28 11:24:58;;;;;;;5.63;2.60;;;;;;;12.91;77.06;91917.72;5063820;28;20052;-83
2021/11/28 11:27:27;;;;;;;4.68;1.85;;;;;;;13.09;76.48;91925.97;5063156;28;20059;-83
2021/11/28 11:29:57;;;;;;;2.42;1.23;;;;;;;13.13;75.23;91910.78;5060128;28;20121;-84
2021/11/28 11:32:26;;;;;;;23.65;11.25;;;;;;;13.35;73.84;91920.84;5059919;28;20091;-85
2021/11/28 11:34:55;;;;;;;9.55;4.65;;;;;;;13.47;72.71;91908.47;5062151;28;21152;-82
2021/11/28 11:37:26;;;;;;;8.20;3.80;;;;;;;13.47;72.75;91898.16;5057184;28;20053;-83
2021/11/28 11:39:57;;;;;;;6.20;2.30;;;;;;;13.46;72.02;91888.88;5061509;28;20044;-84